sensor_id;sensor_type;location;lat;lon;timestamp;temperature;humidity
40848;DHT22;26570;50.962;5.340;2023-03-19T01:01:18;12.20;99.90
40848;DHT22;26570;50.962;5.340;2023-03-19T01:04:30;12.40;99.90
40848;DHT22;26570;50.962;5.340;2023-03-19T01:07:15;12.20;99.90
40848;DHT22;26570;50.962;5.340;2023-03-19T01:10:02;12.10;99.90
40848;DHT22;26570;50.962;5.340;2023-03-19T01:12:48;12.20;99.90
40848;DHT22;26570;50.962;5.340;2023-03-19T01:15:40;12.20;99.90
40848;DHT22;26570;50.962;5.340;2023-03-19T01:18:26;12.10;99.90
40848;DHT22;26570;50.962;5.340;2023-03-19T01:21:11;12.10;99.90
40848;DHT22;26570;50.962;5.340;2023-03-19T01:23:57;12.20;99.90
40848;DHT22;26570;50.962;5.340;2023-03-19T01:26:43;12.30;99.90
40848;DHT22;26570;50.962;5.340;2023-03-19T01:29:51;12.10;99.90
40848;DHT22;26570;50.962;5.340;2023-03-19T01:32:59;12.20;99.90
40848;DHT22;26570;50.962;5.340;2023-03-19T01:35:46;12.20;99.90
40848;DHT22;26570;50.962;5.340;2023-03-19T01:38:31;12.10;99.90
40848;DHT22;26570;50.962;5.340;2023-03-19T01:41:17;12.00;99.90
40848;DHT22;26570;50.962;5.340;2023-03-19T01:44:30;12.10;99.90
40848;DHT22;26570;50.962;5.340;2023-03-19T01:50:24;12.20;99.90
40848;DHT22;26570;50.962;5.340;2023-03-19T01:53:13;12.10;99.90
40848;DHT22;26570;50.962;5.340;2023-03-19T01:56:22;12.10;99.90
40848;DHT22;26570;50.962;5.340;2023-03-19T01:59:26;11.80;99.90
40848;DHT22;26570;50.962;5.340;2023-03-19T02:05:18;12.30;99.90
40848;DHT22;26570;50.962;5.340;2023-03-19T02:08:32;12.30;99.90
40848;DHT22;26570;50.962;5.340;2023-03-19T02:11:21;12.30;99.90
40848;DHT22;26570;50.962;5.340;2023-03-19T02:14:08;12.20;99.90
40848;DHT22;26570;50.962;5.340;2023-03-19T02:16:54;12.20;99.90
40848;DHT22;26570;50.962;5.340;2023-03-19T02:28:50;12.20;99.90
40848;DHT22;26570;50.962;5.340;2023-03-19T02:31:36;12.30;99.90
40848;DHT22;26570;50.962;5.340;2023-03-19T02:37:32;12.20;99.90
40848;DHT22;26570;50.962;5.340;2023-03-19T02:40:26;12.20;99.90
40848;DHT22;26570;50.962;5.340;2023-03-19T02:43:47;12.20;99.90
40848;DHT22;26570;50.962;5.340;2023-03-19T02:46:56;12.30;99.90
40848;DHT22;26570;50.962;5.340;2023-03-19T02:49:42;12.40;99.90
40848;DHT22;26570;50.962;5.340;2023-03-19T02:52:27;12.30;99.90
40848;DHT22;26570;50.962;5.340;2023-03-19T02:55:13;12.20;99.90
40848;DHT22;26570;50.962;5.340;2023-03-19T02:58:02;12.20;99.90
40848;DHT22;26570;50.962;5.340;2023-03-19T03:00:48;12.30;99.90
40848;DHT22;26570;50.962;5.340;2023-03-19T03:03:33;12.20;99.90
40848;DHT22;26570;50.962;5.340;2023-03-19T03:06:42;12.10;99.90
40848;DHT22;26570;50.962;5.340;2023-03-19T03:09:32;12.20;99.90
40848;DHT22;26570;50.962;5.340;2023-03-19T03:12:18;12.20;99.90
40848;DHT22;26570;50.962;5.340;2023-03-19T03:15:26;12.10;99.90
40848;DHT22;26570;50.962;5.340;2023-03-19T03:18:12;11.70;99.90
40848;DHT22;26570;50.962;5.340;2023-03-19T03:21:20;12.10;99.90
40848;DHT22;26570;50.962;5.340;2023-03-19T03:24:06;12.20;99.90
40848;DHT22;26570;50.962;5.340;2023-03-19T03:26:52;11.80;99.90
40848;DHT22;26570;50.962;5.340;2023-03-19T03:30:01;12.10;99.90
40848;DHT22;26570;50.962;5.340;2023-03-19T03:32:47;12.30;99.90
40848;DHT22;26570;50.962;5.340;2023-03-19T03:35:33;12.30;99.90
40848;DHT22;26570;50.962;5.340;2023-03-19T03:38:18;12.30;99.90
40848;DHT22;26570;50.962;5.340;2023-03-19T03:41:05;12.30;99.90
40848;DHT22;26570;50.962;5.340;2023-03-19T03:43:51;12.30;99.90
40848;DHT22;26570;50.962;5.340;2023-03-19T03:46:36;12.30;99.90
40848;DHT22;26570;50.962;5.340;2023-03-19T03:49:23;12.20;99.90
40848;DHT22;26570;50.962;5.340;2023-03-19T03:52:09;12.30;99.90
40848;DHT22;26570;50.962;5.340;2023-03-19T03:54:54;12.20;99.90
40848;DHT22;26570;50.962;5.340;2023-03-19T03:57:40;12.10;99.90
40848;DHT22;26570;50.962;5.340;2023-03-19T04:00:26;12.30;99.90
40848;DHT22;26570;50.962;5.340;2023-03-19T04:03:13;12.20;99.90
40848;DHT22;26570;50.962;5.340;2023-03-19T04:06:22;12.20;99.90
40848;DHT22;26570;50.962;5.340;2023-03-19T04:09:08;12.30;99.90
40848;DHT22;26570;50.962;5.340;2023-03-19T04:11:54;12.30;99.90
40848;DHT22;26570;50.962;5.340;2023-03-19T04:14:40;12.30;99.90
40848;DHT22;26570;50.962;5.340;2023-03-19T04:17:30;12.20;99.90
40848;DHT22;26570;50.962;5.340;2023-03-19T04:20:16;12.30;99.90
40848;DHT22;26570;50.962;5.340;2023-03-19T04:23:02;12.40;99.90
40848;DHT22;26570;50.962;5.340;2023-03-19T04:25:48;12.30;99.90
40848;DHT22;26570;50.962;5.340;2023-03-19T04:28:34;12.30;99.90
40848;DHT22;26570;50.962;5.340;2023-03-19T04:31:20;12.30;99.90
40848;DHT22;26570;50.962;5.340;2023-03-19T04:34:09;12.30;99.90
40848;DHT22;26570;50.962;5.340;2023-03-19T04:36:56;12.30;99.90
40848;DHT22;26570;50.962;5.340;2023-03-19T04:39:41;12.10;99.90
40848;DHT22;26570;50.962;5.340;2023-03-19T04:42:28;12.10;99.90
40848;DHT22;26570;50.962;5.340;2023-03-19T04:45:14;12.20;99.90
40848;DHT22;26570;50.962;5.340;2023-03-19T04:48:00;12.20;99.90
40848;DHT22;26570;50.962;5.340;2023-03-19T04:50:45;12.10;99.90
40848;DHT22;26570;50.962;5.340;2023-03-19T04:53:31;12.10;99.90
40848;DHT22;26570;50.962;5.340;2023-03-19T04:56:17;12.20;99.90
40848;DHT22;26570;50.962;5.340;2023-03-19T04:59:03;12.10;99.90
40848;DHT22;26570;50.962;5.340;2023-03-19T05:01:49;12.20;99.90
40848;DHT22;26570;50.962;5.340;2023-03-19T05:04:57;11.90;99.90
40848;DHT22;26570;50.962;5.340;2023-03-19T05:07:43;12.00;99.90
40848;DHT22;26570;50.962;5.340;2023-03-19T05:10:29;12.00;99.90
40848;DHT22;26570;50.962;5.340;2023-03-19T05:13:16;12.00;99.90
40848;DHT22;26570;50.962;5.340;2023-03-19T05:16:02;12.00;99.90
40848;DHT22;26570;50.962;5.340;2023-03-19T05:18:48;11.90;99.90
40848;DHT22;26570;50.962;5.340;2023-03-19T05:21:34;11.90;99.90
40848;DHT22;26570;50.962;5.340;2023-03-19T05:24:19;12.00;99.90
40848;DHT22;26570;50.962;5.340;2023-03-19T05:27:06;12.00;99.90
40848;DHT22;26570;50.962;5.340;2023-03-19T05:30:15;12.10;99.90
40848;DHT22;26570;50.962;5.340;2023-03-19T05:33:05;12.20;99.90
40848;DHT22;26570;50.962;5.340;2023-03-19T05:36:13;12.10;99.90
40848;DHT22;26570;50.962;5.340;2023-03-19T05:38:59;12.10;99.90
40848;DHT22;26570;50.962;5.340;2023-03-19T05:41:46;12.20;99.90
40848;DHT22;26570;50.962;5.340;2023-03-19T05:44:36;12.10;99.90
40848;DHT22;26570;50.962;5.340;2023-03-19T05:47:23;12.10;99.90
40848;DHT22;26570;50.962;5.340;2023-03-19T05:50:10;12.10;99.90
40848;DHT22;26570;50.962;5.340;2023-03-19T05:52:59;12.00;99.90
40848;DHT22;26570;50.962;5.340;2023-03-19T05:55:45;12.10;99.90
40848;DHT22;26570;50.962;5.340;2023-03-19T05:58:31;12.30;99.90
40848;DHT22;26570;50.962;5.340;2023-03-19T06:01:17;12.20;99.90
40848;DHT22;26570;50.962;5.340;2023-03-19T06:04:03;12.10;99.90
40848;DHT22;26570;50.962;5.340;2023-03-19T06:06:48;12.20;99.90
40848;DHT22;26570;50.962;5.340;2023-03-19T06:09:34;12.20;99.90
40848;DHT22;26570;50.962;5.340;2023-03-19T06:12:19;12.30;99.90
40848;DHT22;26570;50.962;5.340;2023-03-19T06:15:06;12.30;99.90
40848;DHT22;26570;50.962;5.340;2023-03-19T06:17:52;12.30;99.90
40848;DHT22;26570;50.962;5.340;2023-03-19T06:20:38;12.30;99.90
40848;DHT22;26570;50.962;5.340;2023-03-19T06:23:24;12.20;99.90
40848;DHT22;26570;50.962;5.340;2023-03-19T06:26:10;12.20;99.90
40848;DHT22;26570;50.962;5.340;2023-03-19T06:29:19;12.10;99.90
40848;DHT22;26570;50.962;5.340;2023-03-19T06:32:04;12.20;99.90
40848;DHT22;26570;50.962;5.340;2023-03-19T06:34:50;12.30;99.90
40848;DHT22;26570;50.962;5.340;2023-03-19T06:37:36;12.30;99.90
40848;DHT22;26570;50.962;5.340;2023-03-19T06:40:22;12.40;99.90
40848;DHT22;26570;50.962;5.340;2023-03-19T06:43:08;12.20;99.90
40848;DHT22;26570;50.962;5.340;2023-03-19T06:45:53;12.10;99.90
40848;DHT22;26570;50.962;5.340;2023-03-19T06:48:39;12.10;99.90
40848;DHT22;26570;50.962;5.340;2023-03-19T06:51:47;12.00;99.90
40848;DHT22;26570;50.962;5.340;2023-03-19T06:54:34;12.00;99.90
40848;DHT22;26570;50.962;5.340;2023-03-19T06:57:42;12.10;99.90
40848;DHT22;26570;50.962;5.340;2023-03-19T07:00:27;12.30;99.90
40848;DHT22;26570;50.962;5.340;2023-03-19T07:03:13;12.30;99.90
40848;DHT22;26570;50.962;5.340;2023-03-19T07:06:01;12.40;99.90
40848;DHT22;26570;50.962;5.340;2023-03-19T07:08:50;12.50;99.90
40848;DHT22;26570;50.962;5.340;2023-03-19T07:11:57;12.50;99.90
40848;DHT22;26570;50.962;5.340;2023-03-19T07:14:43;12.60;99.90
40848;DHT22;26570;50.962;5.340;2023-03-19T07:17:28;12.70;99.90
40848;DHT22;26570;50.962;5.340;2023-03-19T07:20:16;12.80;99.90
40848;DHT22;26570;50.962;5.340;2023-03-19T07:23:01;13.30;99.90
40848;DHT22;26570;50.962;5.340;2023-03-19T07:25:47;14.50;99.90
40848;DHT22;26570;50.962;5.340;2023-03-19T07:28:33;15.80;99.90
40848;DHT22;26570;50.962;5.340;2023-03-19T07:31:19;17.20;99.90
40848;DHT22;26570;50.962;5.340;2023-03-19T07:34:06;18.30;99.90
40848;DHT22;26570;50.962;5.340;2023-03-19T07:36:52;19.30;99.90
40848;DHT22;26570;50.962;5.340;2023-03-19T07:39:38;19.90;99.90
40848;DHT22;26570;50.962;5.340;2023-03-19T07:42:25;20.60;99.90
40848;DHT22;26570;50.962;5.340;2023-03-19T07:45:34;20.60;99.90
40848;DHT22;26570;50.962;5.340;2023-03-19T07:48:20;21.10;99.90
40848;DHT22;26570;50.962;5.340;2023-03-19T07:51:07;21.10;99.90
40848;DHT22;26570;50.962;5.340;2023-03-19T07:53:54;21.70;99.90
40848;DHT22;26570;50.962;5.340;2023-03-19T07:57:03;21.60;99.90
40848;DHT22;26570;50.962;5.340;2023-03-19T08:00:12;21.20;99.90
40848;DHT22;26570;50.962;5.340;2023-03-19T08:02:59;21.00;99.90
40848;DHT22;26570;50.962;5.340;2023-03-19T08:05:48;20.20;99.90
40848;DHT22;26570;50.962;5.340;2023-03-19T08:08:56;19.20;99.90
40848;DHT22;26570;50.962;5.340;2023-03-19T08:11:43;18.10;99.90
40848;DHT22;26570;50.962;5.340;2023-03-19T08:14:29;17.30;99.90
40848;DHT22;26570;50.962;5.340;2023-03-19T08:17:16;17.00;99.90
40848;DHT22;26570;50.962;5.340;2023-03-19T08:20:04;16.70;99.90
40848;DHT22;26570;50.962;5.340;2023-03-19T08:22:51;16.40;99.90
40848;DHT22;26570;50.962;5.340;2023-03-19T08:25:37;15.90;99.90
40848;DHT22;26570;50.962;5.340;2023-03-19T08:28:23;16.00;99.90
40848;DHT22;26570;50.962;5.340;2023-03-19T08:31:11;16.20;99.90
40848;DHT22;26570;50.962;5.340;2023-03-19T08:34:21;16.60;99.90
40848;DHT22;26570;50.962;5.340;2023-03-19T08:37:08;16.90;99.90
40848;DHT22;26570;50.962;5.340;2023-03-19T08:40:17;17.20;99.90
40848;DHT22;26570;50.962;5.340;2023-03-19T08:43:06;17.30;99.90
40848;DHT22;26570;50.962;5.340;2023-03-19T08:45:52;17.30;99.90
40848;DHT22;26570;50.962;5.340;2023-03-19T08:48:39;17.70;99.90
40848;DHT22;26570;50.962;5.340;2023-03-19T08:51:25;18.30;99.90
40848;DHT22;26570;50.962;5.340;2023-03-19T08:54:12;18.60;99.90
40848;DHT22;26570;50.962;5.340;2023-03-19T08:56:59;19.10;99.90
40848;DHT22;26570;50.962;5.340;2023-03-19T08:59:46;18.80;99.90
40848;DHT22;26570;50.962;5.340;2023-03-19T09:02:55;19.20;99.90
40848;DHT22;26570;50.962;5.340;2023-03-19T09:05:42;19.10;99.90
40848;DHT22;26570;50.962;5.340;2023-03-19T09:08:29;18.60;99.90
40848;DHT22;26570;50.962;5.340;2023-03-19T09:11:17;18.50;99.90
40848;DHT22;26570;50.962;5.340;2023-03-19T09:14:03;18.20;99.90
40848;DHT22;26570;50.962;5.340;2023-03-19T09:16:50;17.80;99.90
40848;DHT22;26570;50.962;5.340;2023-03-19T09:19:59;17.90;99.90
40848;DHT22;26570;50.962;5.340;2023-03-19T09:22:46;18.00;99.90
40848;DHT22;26570;50.962;5.340;2023-03-19T09:25:35;17.80;99.90
40848;DHT22;26570;50.962;5.340;2023-03-19T09:28:21;17.40;99.90
40848;DHT22;26570;50.962;5.340;2023-03-19T09:31:09;17.20;99.90
40848;DHT22;26570;50.962;5.340;2023-03-19T09:34:18;17.00;99.90
40848;DHT22;26570;50.962;5.340;2023-03-19T09:37:03;16.60;99.90
40848;DHT22;26570;50.962;5.340;2023-03-19T09:39:50;16.70;99.90
40848;DHT22;26570;50.962;5.340;2023-03-19T09:45:30;17.40;99.90
40848;DHT22;26570;50.962;5.340;2023-03-19T09:48:39;16.90;99.90
40848;DHT22;26570;50.962;5.340;2023-03-19T09:51:39;16.80;99.90
40848;DHT22;26570;50.962;5.340;2023-03-19T09:54:35;17.20;99.90
40848;DHT22;26570;50.962;5.340;2023-03-19T09:57:22;17.70;99.90
40848;DHT22;26570;50.962;5.340;2023-03-19T10:06:27;18.20;99.90
40848;DHT22;26570;50.962;5.340;2023-03-19T10:09:32;17.60;99.90
40848;DHT22;26570;50.962;5.340;2023-03-19T10:12:31;17.10;99.90
40848;DHT22;26570;50.962;5.340;2023-03-19T10:15:31;16.90;99.90
40848;DHT22;26570;50.962;5.340;2023-03-19T10:18:25;16.60;99.90
40848;DHT22;26570;50.962;5.340;2023-03-19T10:24:44;16.40;99.90
40848;DHT22;26570;50.962;5.340;2023-03-19T10:27:30;16.40;99.90
40848;DHT22;26570;50.962;5.340;2023-03-19T10:30:18;16.40;99.90
40848;DHT22;26570;50.962;5.340;2023-03-19T10:33:24;16.60;99.90
40848;DHT22;26570;50.962;5.340;2023-03-19T10:36:36;17.00;99.90
40848;DHT22;26570;50.962;5.340;2023-03-19T10:39:23;17.20;99.90
40848;DHT22;26570;50.962;5.340;2023-03-19T10:48:04;16.80;99.90
40848;DHT22;26570;50.962;5.340;2023-03-19T10:50:59;16.70;99.90
40848;DHT22;26570;50.962;5.340;2023-03-19T10:53:45;16.50;99.90
40848;DHT22;26570;50.962;5.340;2023-03-19T10:56:33;16.00;99.90
40848;DHT22;26570;50.962;5.340;2023-03-19T10:59:29;15.70;99.90
40848;DHT22;26570;50.962;5.340;2023-03-19T11:02:19;15.20;99.90
40848;DHT22;26570;50.962;5.340;2023-03-19T11:10:48;16.10;99.90
40848;DHT22;26570;50.962;5.340;2023-03-19T11:13:37;16.30;99.90
40848;DHT22;26570;50.962;5.340;2023-03-19T11:16:24;16.60;99.90
40848;DHT22;26570;50.962;5.340;2023-03-19T11:19:22;16.70;99.90
40848;DHT22;26570;50.962;5.340;2023-03-19T11:25:09;16.50;99.90
40848;DHT22;26570;50.962;5.340;2023-03-19T11:28:18;16.60;99.90
40848;DHT22;26570;50.962;5.340;2023-03-19T11:31:17;16.60;99.90
40848;DHT22;26570;50.962;5.340;2023-03-19T11:37:56;17.00;99.90
40848;DHT22;26570;50.962;5.340;2023-03-19T11:41:02;17.00;99.90
40848;DHT22;26570;50.962;5.340;2023-03-19T11:44:00;17.10;99.90
40848;DHT22;26570;50.962;5.340;2023-03-19T11:47:03;17.40;99.90
40848;DHT22;26570;50.962;5.340;2023-03-19T11:53:08;17.70;99.90
40848;DHT22;26570;50.962;5.340;2023-03-19T11:56:33;17.80;99.90
40848;DHT22;26570;50.962;5.340;2023-03-19T11:59:54;18.10;99.90
40848;DHT22;26570;50.962;5.340;2023-03-19T12:09:00;17.90;99.90
40848;DHT22;26570;50.962;5.340;2023-03-19T12:12:04;18.20;99.90
40848;DHT22;26570;50.962;5.340;2023-03-19T12:15:13;18.40;99.90
40848;DHT22;26570;50.962;5.340;2023-03-19T12:34:52;18.30;99.90
40848;DHT22;26570;50.962;5.340;2023-03-19T12:40:46;18.50;99.90
40848;DHT22;26570;50.962;5.340;2023-03-19T12:46:32;18.70;99.90
40848;DHT22;26570;50.962;5.340;2023-03-19T12:49:40;18.80;99.90
40848;DHT22;26570;50.962;5.340;2023-03-19T12:52:36;18.80;99.90
40848;DHT22;26570;50.962;5.340;2023-03-19T12:55:39;19.00;99.90
40848;DHT22;26570;50.962;5.340;2023-03-19T12:58:45;18.80;99.90
40848;DHT22;26570;50.962;5.340;2023-03-19T13:01:46;18.90;99.90
40848;DHT22;26570;50.962;5.340;2023-03-19T13:04:39;19.20;99.90
40848;DHT22;26570;50.962;5.340;2023-03-19T13:10:31;19.50;99.90
40848;DHT22;26570;50.962;5.340;2023-03-19T13:13:55;19.50;99.90
40848;DHT22;26570;50.962;5.340;2023-03-19T13:19:45;19.10;99.90
40848;DHT22;26570;50.962;5.340;2023-03-19T13:22:36;18.90;99.90
40848;DHT22;26570;50.962;5.340;2023-03-19T13:25:41;18.80;99.90
40848;DHT22;26570;50.962;5.340;2023-03-19T13:28:31;18.60;99.90
40848;DHT22;26570;50.962;5.340;2023-03-19T13:31:23;18.60;99.90
40848;DHT22;26570;50.962;5.340;2023-03-19T13:37:10;17.70;99.90
40848;DHT22;26570;50.962;5.340;2023-03-19T13:39:57;17.60;99.90
40848;DHT22;26570;50.962;5.340;2023-03-19T13:42:43;17.40;99.90
40848;DHT22;26570;50.962;5.340;2023-03-19T13:45:38;17.10;99.90
40848;DHT22;26570;50.962;5.340;2023-03-19T13:54:14;16.60;99.90
40848;DHT22;26570;50.962;5.340;2023-03-19T13:57:23;16.90;99.90
40848;DHT22;26570;50.962;5.340;2023-03-19T14:03:32;16.40;99.90
40848;DHT22;26570;50.962;5.340;2023-03-19T14:06:33;16.40;99.90
40848;DHT22;26570;50.962;5.340;2023-03-19T14:09:42;16.30;99.90
40848;DHT22;26570;50.962;5.340;2023-03-19T14:12:36;16.00;99.90
40848;DHT22;26570;50.962;5.340;2023-03-19T14:15:23;16.00;99.90
40848;DHT22;26570;50.962;5.340;2023-03-19T14:18:15;16.10;99.90
40848;DHT22;26570;50.962;5.340;2023-03-19T14:21:10;16.20;99.90
40848;DHT22;26570;50.962;5.340;2023-03-19T14:23:56;16.00;99.90
40848;DHT22;26570;50.962;5.340;2023-03-19T14:27:16;15.80;99.90
40848;DHT22;26570;50.962;5.340;2023-03-19T14:30:30;15.70;99.90
40848;DHT22;26570;50.962;5.340;2023-03-19T14:33:25;15.70;99.90
40848;DHT22;26570;50.962;5.340;2023-03-19T14:36:16;15.60;99.90
40848;DHT22;26570;50.962;5.340;2023-03-19T14:39:25;15.60;99.90
40848;DHT22;26570;50.962;5.340;2023-03-19T14:42:25;15.70;99.90
40848;DHT22;26570;50.962;5.340;2023-03-19T14:54:31;15.10;99.90
40848;DHT22;26570;50.962;5.340;2023-03-19T14:57:21;15.10;99.90
40848;DHT22;26570;50.962;5.340;2023-03-19T15:00:16;15.00;99.90
40848;DHT22;26570;50.962;5.340;2023-03-19T15:03:04;14.90;99.90
40848;DHT22;26570;50.962;5.340;2023-03-19T15:06:03;15.00;99.90
40848;DHT22;26570;50.962;5.340;2023-03-19T15:08:50;15.00;99.90
40848;DHT22;26570;50.962;5.340;2023-03-19T15:15:02;14.80;99.90
40848;DHT22;26570;50.962;5.340;2023-03-19T15:18:07;14.80;99.90
40848;DHT22;26570;50.962;5.340;2023-03-19T15:20:54;14.90;99.90
40848;DHT22;26570;50.962;5.340;2023-03-19T15:23:43;14.70;99.90
40848;DHT22;26570;50.962;5.340;2023-03-19T15:26:34;14.70;99.90
40848;DHT22;26570;50.962;5.340;2023-03-19T15:29:40;14.60;99.90
40848;DHT22;26570;50.962;5.340;2023-03-19T15:32:37;14.70;99.90
40848;DHT22;26570;50.962;5.340;2023-03-19T15:35:25;14.80;99.90
40848;DHT22;26570;50.962;5.340;2023-03-19T15:38:14;14.70;99.90
40848;DHT22;26570;50.962;5.340;2023-03-19T15:41:06;14.80;99.90
40848;DHT22;26570;50.962;5.340;2023-03-19T15:43:53;14.80;99.90
40848;DHT22;26570;50.962;5.340;2023-03-19T15:47:04;14.70;99.90
40848;DHT22;26570;50.962;5.340;2023-03-19T15:50:05;14.90;99.90
40848;DHT22;26570;50.962;5.340;2023-03-19T15:53:03;14.90;99.90
40848;DHT22;26570;50.962;5.340;2023-03-19T15:55:52;15.00;99.90
40848;DHT22;26570;50.962;5.340;2023-03-19T15:58:43;15.00;99.90
40848;DHT22;26570;50.962;5.340;2023-03-19T16:01:31;15.10;99.90
40848;DHT22;26570;50.962;5.340;2023-03-19T16:04:22;15.20;99.90
40848;DHT22;26570;50.962;5.340;2023-03-19T16:13:37;15.10;99.90
40848;DHT22;26570;50.962;5.340;2023-03-19T16:16:26;15.10;99.90
40848;DHT22;26570;50.962;5.340;2023-03-19T16:22:27;15.10;99.90
40848;DHT22;26570;50.962;5.340;2023-03-19T16:25:18;14.90;99.90
40848;DHT22;26570;50.962;5.340;2023-03-19T16:28:11;14.90;99.90
40848;DHT22;26570;50.962;5.340;2023-03-19T16:30:58;14.90;99.90
40848;DHT22;26570;50.962;5.340;2023-03-19T16:33:45;15.20;99.90
40848;DHT22;26570;50.962;5.340;2023-03-19T16:36:31;15.10;99.90
40848;DHT22;26570;50.962;5.340;2023-03-19T16:39:31;15.00;99.90
40848;DHT22;26570;50.962;5.340;2023-03-19T16:42:46;15.10;99.90
40848;DHT22;26570;50.962;5.340;2023-03-19T16:45:32;14.70;99.90
40848;DHT22;26570;50.962;5.340;2023-03-19T16:48:19;14.40;99.90
40848;DHT22;26570;50.962;5.340;2023-03-19T16:51:27;14.20;99.90
40848;DHT22;26570;50.962;5.340;2023-03-19T16:54:13;13.90;99.90
40848;DHT22;26570;50.962;5.340;2023-03-19T16:56:59;13.80;99.90
40848;DHT22;26570;50.962;5.340;2023-03-19T16:59:47;13.90;99.90
40848;DHT22;26570;50.962;5.340;2023-03-19T17:02:32;13.70;99.90
40848;DHT22;26570;50.962;5.340;2023-03-19T17:05:18;13.60;99.90
40848;DHT22;26570;50.962;5.340;2023-03-19T17:08:05;13.90;99.90
40848;DHT22;26570;50.962;5.340;2023-03-19T17:10:53;13.70;99.90
40848;DHT22;26570;50.962;5.340;2023-03-19T17:13:39;13.50;99.90
40848;DHT22;26570;50.962;5.340;2023-03-19T17:16:31;13.30;99.90
40848;DHT22;26570;50.962;5.340;2023-03-19T17:19:26;13.20;99.90
40848;DHT22;26570;50.962;5.340;2023-03-19T17:22:13;13.20;99.90
40848;DHT22;26570;50.962;5.340;2023-03-19T17:24:58;13.10;99.90
40848;DHT22;26570;50.962;5.340;2023-03-19T17:27:45;13.00;99.90
40848;DHT22;26570;50.962;5.340;2023-03-19T17:30:31;12.90;99.90
40848;DHT22;26570;50.962;5.340;2023-03-19T17:33:26;12.80;99.90
40848;DHT22;26570;50.962;5.340;2023-03-19T17:36:12;12.70;99.90
40848;DHT22;26570;50.962;5.340;2023-03-19T17:38:57;12.50;99.90
40848;DHT22;26570;50.962;5.340;2023-03-19T17:41:42;12.50;99.90
40848;DHT22;26570;50.962;5.340;2023-03-19T17:44:28;12.50;99.90
40848;DHT22;26570;50.962;5.340;2023-03-19T17:47:17;12.20;99.90
40848;DHT22;26570;50.962;5.340;2023-03-19T17:50:34;12.00;99.90
40848;DHT22;26570;50.962;5.340;2023-03-19T17:53:52;11.90;99.90
40848;DHT22;26570;50.962;5.340;2023-03-19T17:56:42;11.70;99.90
40848;DHT22;26570;50.962;5.340;2023-03-19T17:59:27;11.70;99.90
40848;DHT22;26570;50.962;5.340;2023-03-19T18:02:33;11.70;99.90
40848;DHT22;26570;50.962;5.340;2023-03-19T18:05:22;11.50;99.90
40848;DHT22;26570;50.962;5.340;2023-03-19T18:08:31;11.80;99.90
40848;DHT22;26570;50.962;5.340;2023-03-19T18:11:17;11.70;99.90
40848;DHT22;26570;50.962;5.340;2023-03-19T18:14:02;11.60;99.90
40848;DHT22;26570;50.962;5.340;2023-03-19T18:16:48;11.50;99.90
40848;DHT22;26570;50.962;5.340;2023-03-19T18:19:37;11.40;99.90
40848;DHT22;26570;50.962;5.340;2023-03-19T18:22:22;11.40;99.90
40848;DHT22;26570;50.962;5.340;2023-03-19T18:25:18;11.20;99.90
40848;DHT22;26570;50.962;5.340;2023-03-19T18:28:26;11.10;99.90
40848;DHT22;26570;50.962;5.340;2023-03-19T18:31:20;11.00;99.90
40848;DHT22;26570;50.962;5.340;2023-03-19T18:34:10;11.00;99.90
40848;DHT22;26570;50.962;5.340;2023-03-19T18:36:57;10.90;99.90
40848;DHT22;26570;50.962;5.340;2023-03-19T18:39:42;11.10;99.90
40848;DHT22;26570;50.962;5.340;2023-03-19T18:42:27;10.90;99.90
40848;DHT22;26570;50.962;5.340;2023-03-19T18:45:14;10.90;99.90
40848;DHT22;26570;50.962;5.340;2023-03-19T18:47:59;11.00;99.90
40848;DHT22;26570;50.962;5.340;2023-03-19T18:50:45;10.90;99.90
40848;DHT22;26570;50.962;5.340;2023-03-19T18:53:32;11.00;99.90
40848;DHT22;26570;50.962;5.340;2023-03-19T18:56:28;11.10;99.90
40848;DHT22;26570;50.962;5.340;2023-03-19T18:59:37;11.20;99.90
40848;DHT22;26570;50.962;5.340;2023-03-19T19:02:32;11.00;99.90
40848;DHT22;26570;50.962;5.340;2023-03-19T19:05:26;10.80;99.90
40848;DHT22;26570;50.962;5.340;2023-03-19T19:08:17;11.00;99.90
40848;DHT22;26570;50.962;5.340;2023-03-19T19:11:05;10.90;99.90
40848;DHT22;26570;50.962;5.340;2023-03-19T19:13:56;10.80;99.90
40848;DHT22;26570;50.962;5.340;2023-03-19T19:16:44;10.90;99.90
40848;DHT22;26570;50.962;5.340;2023-03-19T19:19:31;11.10;99.90
40848;DHT22;26570;50.962;5.340;2023-03-19T19:22:18;10.90;99.90
40848;DHT22;26570;50.962;5.340;2023-03-19T19:25:03;10.90;99.90
40848;DHT22;26570;50.962;5.340;2023-03-19T19:28:26;11.00;99.90
40848;DHT22;26570;50.962;5.340;2023-03-19T19:31:25;11.20;99.90
40848;DHT22;26570;50.962;5.340;2023-03-19T19:34:16;11.10;99.90
40848;DHT22;26570;50.962;5.340;2023-03-19T19:37:02;11.10;99.90
40848;DHT22;26570;50.962;5.340;2023-03-19T19:40:21;11.10;99.90
40848;DHT22;26570;50.962;5.340;2023-03-19T19:43:15;11.50;99.90
40848;DHT22;26570;50.962;5.340;2023-03-19T19:46:02;10.80;99.90
40848;DHT22;26570;50.962;5.340;2023-03-19T19:49:16;10.90;99.90
40848;DHT22;26570;50.962;5.340;2023-03-19T19:52:19;10.60;99.90
40848;DHT22;26570;50.962;5.340;2023-03-19T19:55:07;10.50;99.90
40848;DHT22;26570;50.962;5.340;2023-03-19T19:57:54;10.20;99.90
40848;DHT22;26570;50.962;5.340;2023-03-19T20:00:40;10.30;99.90
40848;DHT22;26570;50.962;5.340;2023-03-19T20:03:28;10.40;99.90
40848;DHT22;26570;50.962;5.340;2023-03-19T20:06:15;10.70;99.90
40848;DHT22;26570;50.962;5.340;2023-03-19T20:09:00;10.40;99.90
40848;DHT22;26570;50.962;5.340;2023-03-19T20:12:25;10.50;99.90
40848;DHT22;26570;50.962;5.340;2023-03-19T20:15:21;10.60;99.90
40848;DHT22;26570;50.962;5.340;2023-03-19T20:18:17;10.60;99.90
40848;DHT22;26570;50.962;5.340;2023-03-19T20:21:04;10.60;99.90
40848;DHT22;26570;50.962;5.340;2023-03-19T20:23:50;10.60;99.90
40848;DHT22;26570;50.962;5.340;2023-03-19T20:27:08;10.60;99.90
40848;DHT22;26570;50.962;5.340;2023-03-19T20:29:58;10.40;99.90
40848;DHT22;26570;50.962;5.340;2023-03-19T20:32:44;10.60;99.90
40848;DHT22;26570;50.962;5.340;2023-03-19T20:35:34;10.50;99.90
40848;DHT22;26570;50.962;5.340;2023-03-19T20:38:20;10.50;99.90
40848;DHT22;26570;50.962;5.340;2023-03-19T20:41:17;10.60;99.90
40848;DHT22;26570;50.962;5.340;2023-03-19T20:44:04;10.70;99.90
40848;DHT22;26570;50.962;5.340;2023-03-19T20:46:50;10.80;99.90
40848;DHT22;26570;50.962;5.340;2023-03-19T20:49:36;10.70;99.90
40848;DHT22;26570;50.962;5.340;2023-03-19T20:52:24;10.60;99.90
40848;DHT22;26570;50.962;5.340;2023-03-19T20:55:15;10.80;99.90
40848;DHT22;26570;50.962;5.340;2023-03-19T20:58:02;10.90;99.90
40848;DHT22;26570;50.962;5.340;2023-03-19T21:00:58;11.00;99.90
40848;DHT22;26570;50.962;5.340;2023-03-19T21:03:44;10.80;99.90
40848;DHT22;26570;50.962;5.340;2023-03-19T21:06:54;10.80;99.90
40848;DHT22;26570;50.962;5.340;2023-03-19T21:09:40;10.60;99.90